<?xml version="1.0" encoding="UTF-8" standalone="no" ?>
<gpx xmlns="http://www.topografix.com/GPX/1/1" xmlns:xsi="http://www.w3.org/2001/XMLSchema-instance" xsi:schemaLocation="http://www.topografix.com/GPX/1/1 http://www.topografix.com/GPX/1/1/gpx.xsd" version="1.1" creator="VisuGPX - https://www.visugpx.com">
  <metadata>
    <name>Footing avec lien 🫱 🔗🫲  puis exos de foulée avec Mich'</name>
  </metadata>
  <trk>
    <name><![CDATA[Footing avec lien 🫱 🔗🫲  puis exos de foulée avec Mich'_1]]></name>
    <trkseg>
      <trkpt lat="48.71123" lon="7.1627">
        <ele>317.6</ele>
        <time>2023-12-08T13:06:29Z</time>
      </trkpt>
      <trkpt lat="48.7111" lon="7.16249">
        <ele>317.9</ele>
        <time>2023-12-08T13:06:35Z</time>
      </trkpt>
      <trkpt lat="48.71096" lon="7.16228">
        <ele>318.1</ele>
        <time>2023-12-08T13:06:41Z</time>
      </trkpt>
      <trkpt lat="48.71081" lon="7.16208">
        <ele>318.3</ele>
        <time>2023-12-08T13:06:48Z</time>
      </trkpt>
      <trkpt lat="48.71065" lon="7.16189">
        <ele>318.5</ele>
        <time>2023-12-08T13:06:56Z</time>
      </trkpt>
      <trkpt lat="48.7105" lon="7.16173">
        <ele>318.6</ele>
        <time>2023-12-08T13:07:03Z</time>
      </trkpt>
      <trkpt lat="48.71033" lon="7.16163">
        <ele>318.6</ele>
        <time>2023-12-08T13:07:10Z</time>
      </trkpt>
      <trkpt lat="48.71015" lon="7.16162">
        <ele>318.8</ele>
        <time>2023-12-08T13:07:18Z</time>
      </trkpt>
      <trkpt lat="48.70998" lon="7.16152">
        <ele>319</ele>
        <time>2023-12-08T13:07:25Z</time>
      </trkpt>
      <trkpt lat="48.70979" lon="7.1615">
        <ele>319.6</ele>
        <time>2023-12-08T13:07:33Z</time>
      </trkpt>
      <trkpt lat="48.70961" lon="7.16147">
        <ele>320.2</ele>
        <time>2023-12-08T13:07:40Z</time>
      </trkpt>
      <trkpt lat="48.7094" lon="7.16144">
        <ele>320.9</ele>
        <time>2023-12-08T13:07:48Z</time>
      </trkpt>
      <trkpt lat="48.7092" lon="7.16142">
        <ele>321.6</ele>
        <time>2023-12-08T13:07:58Z</time>
      </trkpt>
      <trkpt lat="48.709" lon="7.16134">
        <ele>322.4</ele>
        <time>2023-12-08T13:08:06Z</time>
      </trkpt>
      <trkpt lat="48.7088" lon="7.16131">
        <ele>323.1</ele>
        <time>2023-12-08T13:08:14Z</time>
      </trkpt>
      <trkpt lat="48.7086" lon="7.16123">
        <ele>323.9</ele>
        <time>2023-12-08T13:08:20Z</time>
      </trkpt>
      <trkpt lat="48.7084" lon="7.16124">
        <ele>324.7</ele>
        <time>2023-12-08T13:08:28Z</time>
      </trkpt>
      <trkpt lat="48.70817" lon="7.16131">
        <ele>325.6</ele>
        <time>2023-12-08T13:08:40Z</time>
      </trkpt>
      <trkpt lat="48.70797" lon="7.16117">
        <ele>326.6</ele>
        <time>2023-12-08T13:08:44Z</time>
      </trkpt>
      <trkpt lat="48.70779" lon="7.16116">
        <ele>327.5</ele>
        <time>2023-12-08T13:08:51Z</time>
      </trkpt>
      <trkpt lat="48.7076" lon="7.16113">
        <ele>328.4</ele>
        <time>2023-12-08T13:08:58Z</time>
      </trkpt>
      <trkpt lat="48.70741" lon="7.16113">
        <ele>329.2</ele>
        <time>2023-12-08T13:09:07Z</time>
      </trkpt>
      <trkpt lat="48.70723" lon="7.16105">
        <ele>330.1</ele>
        <time>2023-12-08T13:09:14Z</time>
      </trkpt>
      <trkpt lat="48.70704" lon="7.16102">
        <ele>331.1</ele>
        <time>2023-12-08T13:09:21Z</time>
      </trkpt>
      <trkpt lat="48.70685" lon="7.16109">
        <ele>332.2</ele>
        <time>2023-12-08T13:09:30Z</time>
      </trkpt>
      <trkpt lat="48.70666" lon="7.16109">
        <ele>333.2</ele>
        <time>2023-12-08T13:09:37Z</time>
      </trkpt>
      <trkpt lat="48.70646" lon="7.16113">
        <ele>334.3</ele>
        <time>2023-12-08T13:09:46Z</time>
      </trkpt>
      <trkpt lat="48.70626" lon="7.16104">
        <ele>335.4</ele>
        <time>2023-12-08T13:09:52Z</time>
      </trkpt>
      <trkpt lat="48.70606" lon="7.16103">
        <ele>336.4</ele>
        <time>2023-12-08T13:10:00Z</time>
      </trkpt>
      <trkpt lat="48.70587" lon="7.16109">
        <ele>337.2</ele>
        <time>2023-12-08T13:10:08Z</time>
      </trkpt>
      <trkpt lat="48.70569" lon="7.16114">
        <ele>337.8</ele>
        <time>2023-12-08T13:10:15Z</time>
      </trkpt>
      <trkpt lat="48.70548" lon="7.16113">
        <ele>338.4</ele>
        <time>2023-12-08T13:10:23Z</time>
      </trkpt>
      <trkpt lat="48.70528" lon="7.16111">
        <ele>338.7</ele>
        <time>2023-12-08T13:10:31Z</time>
      </trkpt>
      <trkpt lat="48.70509" lon="7.16104">
        <ele>338.7</ele>
        <time>2023-12-08T13:10:37Z</time>
      </trkpt>
      <trkpt lat="48.70492" lon="7.16094">
        <ele>338.7</ele>
        <time>2023-12-08T13:10:43Z</time>
      </trkpt>
      <trkpt lat="48.70474" lon="7.16083">
        <ele>338.9</ele>
        <time>2023-12-08T13:10:50Z</time>
      </trkpt>
      <trkpt lat="48.70457" lon="7.16069">
        <ele>339.4</ele>
        <time>2023-12-08T13:10:56Z</time>
      </trkpt>
      <trkpt lat="48.7044" lon="7.16058">
        <ele>340</ele>
        <time>2023-12-08T13:11:02Z</time>
      </trkpt>
      <trkpt lat="48.7042" lon="7.16048">
        <ele>341</ele>
        <time>2023-12-08T13:11:09Z</time>
      </trkpt>
      <trkpt lat="48.70401" lon="7.16038">
        <ele>342</ele>
        <time>2023-12-08T13:11:17Z</time>
      </trkpt>
      <trkpt lat="48.70383" lon="7.1603">
        <ele>343.1</ele>
        <time>2023-12-08T13:11:24Z</time>
      </trkpt>
      <trkpt lat="48.70364" lon="7.16026">
        <ele>344.4</ele>
        <time>2023-12-08T13:11:33Z</time>
      </trkpt>
      <trkpt lat="48.70345" lon="7.16017">
        <ele>345.6</ele>
        <time>2023-12-08T13:11:41Z</time>
      </trkpt>
      <trkpt lat="48.70326" lon="7.16014">
        <ele>346.9</ele>
        <time>2023-12-08T13:11:49Z</time>
      </trkpt>
      <trkpt lat="48.70312" lon="7.16038">
        <ele>348.2</ele>
        <time>2023-12-08T13:11:57Z</time>
      </trkpt>
      <trkpt lat="48.70293" lon="7.16041">
        <ele>349.2</ele>
        <time>2023-12-08T13:12:04Z</time>
      </trkpt>
      <trkpt lat="48.70272" lon="7.16038">
        <ele>350.3</ele>
        <time>2023-12-08T13:12:11Z</time>
      </trkpt>
      <trkpt lat="48.70253" lon="7.16034">
        <ele>351.2</ele>
        <time>2023-12-08T13:12:17Z</time>
      </trkpt>
      <trkpt lat="48.70235" lon="7.16037">
        <ele>352.2</ele>
        <time>2023-12-08T13:12:25Z</time>
      </trkpt>
      <trkpt lat="48.70215" lon="7.16034">
        <ele>352.9</ele>
        <time>2023-12-08T13:12:32Z</time>
      </trkpt>
      <trkpt lat="48.70196" lon="7.16033">
        <ele>353.9</ele>
        <time>2023-12-08T13:12:40Z</time>
      </trkpt>
      <trkpt lat="48.70175" lon="7.16035">
        <ele>355.2</ele>
        <time>2023-12-08T13:12:48Z</time>
      </trkpt>
      <trkpt lat="48.70155" lon="7.16041">
        <ele>356.4</ele>
        <time>2023-12-08T13:12:57Z</time>
      </trkpt>
      <trkpt lat="48.70136" lon="7.16041">
        <ele>357.4</ele>
        <time>2023-12-08T13:13:04Z</time>
      </trkpt>
      <trkpt lat="48.70116" lon="7.16038">
        <ele>358.5</ele>
        <time>2023-12-08T13:13:11Z</time>
      </trkpt>
      <trkpt lat="48.70098" lon="7.16034">
        <ele>359.5</ele>
        <time>2023-12-08T13:13:17Z</time>
      </trkpt>
      <trkpt lat="48.70078" lon="7.16032">
        <ele>360.6</ele>
        <time>2023-12-08T13:13:25Z</time>
      </trkpt>
      <trkpt lat="48.70057" lon="7.16032">
        <ele>361.8</ele>
        <time>2023-12-08T13:13:32Z</time>
      </trkpt>
      <trkpt lat="48.70036" lon="7.16035">
        <ele>363</ele>
        <time>2023-12-08T13:13:41Z</time>
      </trkpt>
      <trkpt lat="48.70018" lon="7.16039">
        <ele>364.1</ele>
        <time>2023-12-08T13:13:49Z</time>
      </trkpt>
      <trkpt lat="48.7" lon="7.16043">
        <ele>365.2</ele>
        <time>2023-12-08T13:13:57Z</time>
      </trkpt>
      <trkpt lat="48.6998" lon="7.16044">
        <ele>366.4</ele>
        <time>2023-12-08T13:14:04Z</time>
      </trkpt>
      <trkpt lat="48.6996" lon="7.16044">
        <ele>367.5</ele>
        <time>2023-12-08T13:14:11Z</time>
      </trkpt>
      <trkpt lat="48.6994" lon="7.16045">
        <ele>368.6</ele>
        <time>2023-12-08T13:14:18Z</time>
      </trkpt>
      <trkpt lat="48.69922" lon="7.16043">
        <ele>369.6</ele>
        <time>2023-12-08T13:14:24Z</time>
      </trkpt>
      <trkpt lat="48.69901" lon="7.16042">
        <ele>370.8</ele>
        <time>2023-12-08T13:14:31Z</time>
      </trkpt>
      <trkpt lat="48.69883" lon="7.16041">
        <ele>371.8</ele>
        <time>2023-12-08T13:14:38Z</time>
      </trkpt>
      <trkpt lat="48.69864" lon="7.16042">
        <ele>372.8</ele>
        <time>2023-12-08T13:14:46Z</time>
      </trkpt>
      <trkpt lat="48.69845" lon="7.16048">
        <ele>373.6</ele>
        <time>2023-12-08T13:14:55Z</time>
      </trkpt>
      <trkpt lat="48.69826" lon="7.16049">
        <ele>374.4</ele>
        <time>2023-12-08T13:15:01Z</time>
      </trkpt>
      <trkpt lat="48.69806" lon="7.16047">
        <ele>375.2</ele>
        <time>2023-12-08T13:15:09Z</time>
      </trkpt>
      <trkpt lat="48.69788" lon="7.16051">
        <ele>376</ele>
        <time>2023-12-08T13:15:17Z</time>
      </trkpt>
      <trkpt lat="48.69768" lon="7.16049">
        <ele>376.6</ele>
        <time>2023-12-08T13:15:24Z</time>
      </trkpt>
      <trkpt lat="48.69748" lon="7.16052">
        <ele>377.1</ele>
        <time>2023-12-08T13:15:32Z</time>
      </trkpt>
      <trkpt lat="48.69729" lon="7.16052">
        <ele>377.6</ele>
        <time>2023-12-08T13:15:39Z</time>
      </trkpt>
      <trkpt lat="48.6971" lon="7.16045">
        <ele>377.9</ele>
        <time>2023-12-08T13:15:46Z</time>
      </trkpt>
      <trkpt lat="48.69692" lon="7.16032">
        <ele>378.1</ele>
        <time>2023-12-08T13:15:53Z</time>
      </trkpt>
      <trkpt lat="48.69677" lon="7.16015">
        <ele>378.1</ele>
        <time>2023-12-08T13:16:00Z</time>
      </trkpt>
      <trkpt lat="48.69664" lon="7.15993">
        <ele>377.9</ele>
        <time>2023-12-08T13:16:08Z</time>
      </trkpt>
      <trkpt lat="48.6965" lon="7.15973">
        <ele>377.6</ele>
        <time>2023-12-08T13:16:14Z</time>
      </trkpt>
      <trkpt lat="48.69636" lon="7.15953">
        <ele>377.3</ele>
        <time>2023-12-08T13:16:21Z</time>
      </trkpt>
      <trkpt lat="48.69623" lon="7.15932">
        <ele>377.1</ele>
        <time>2023-12-08T13:16:28Z</time>
      </trkpt>
      <trkpt lat="48.69609" lon="7.15911">
        <ele>376.7</ele>
        <time>2023-12-08T13:16:35Z</time>
      </trkpt>
      <trkpt lat="48.69594" lon="7.15891">
        <ele>376.4</ele>
        <time>2023-12-08T13:16:42Z</time>
      </trkpt>
      <trkpt lat="48.69579" lon="7.15871">
        <ele>376.1</ele>
        <time>2023-12-08T13:16:49Z</time>
      </trkpt>
      <trkpt lat="48.69566" lon="7.15852">
        <ele>375.8</ele>
        <time>2023-12-08T13:16:55Z</time>
      </trkpt>
      <trkpt lat="48.69552" lon="7.15831">
        <ele>375.4</ele>
        <time>2023-12-08T13:17:02Z</time>
      </trkpt>
      <trkpt lat="48.69537" lon="7.15812">
        <ele>375</ele>
        <time>2023-12-08T13:17:09Z</time>
      </trkpt>
      <trkpt lat="48.69518" lon="7.158">
        <ele>374.7</ele>
        <time>2023-12-08T13:17:16Z</time>
      </trkpt>
      <trkpt lat="48.69501" lon="7.15788">
        <ele>374.3</ele>
        <time>2023-12-08T13:17:23Z</time>
      </trkpt>
      <trkpt lat="48.69484" lon="7.15778">
        <ele>373.8</ele>
        <time>2023-12-08T13:17:30Z</time>
      </trkpt>
      <trkpt lat="48.69465" lon="7.15769">
        <ele>373.3</ele>
        <time>2023-12-08T13:17:37Z</time>
      </trkpt>
      <trkpt lat="48.69447" lon="7.1576">
        <ele>372.9</ele>
        <time>2023-12-08T13:17:44Z</time>
      </trkpt>
      <trkpt lat="48.69429" lon="7.15748">
        <ele>372.3</ele>
        <time>2023-12-08T13:17:52Z</time>
      </trkpt>
      <trkpt lat="48.69412" lon="7.15738">
        <ele>371.8</ele>
        <time>2023-12-08T13:17:58Z</time>
      </trkpt>
      <trkpt lat="48.69392" lon="7.15728">
        <ele>371.2</ele>
        <time>2023-12-08T13:18:05Z</time>
      </trkpt>
      <trkpt lat="48.69375" lon="7.15719">
        <ele>370.6</ele>
        <time>2023-12-08T13:18:11Z</time>
      </trkpt>
      <trkpt lat="48.69355" lon="7.1571">
        <ele>370</ele>
        <time>2023-12-08T13:18:18Z</time>
      </trkpt>
      <trkpt lat="48.69337" lon="7.15697">
        <ele>369.4</ele>
        <time>2023-12-08T13:18:25Z</time>
      </trkpt>
      <trkpt lat="48.6932" lon="7.15684">
        <ele>368.8</ele>
        <time>2023-12-08T13:18:32Z</time>
      </trkpt>
      <trkpt lat="48.69303" lon="7.15672">
        <ele>368.3</ele>
        <time>2023-12-08T13:18:38Z</time>
      </trkpt>
      <trkpt lat="48.69285" lon="7.15665">
        <ele>367.8</ele>
        <time>2023-12-08T13:18:44Z</time>
      </trkpt>
      <trkpt lat="48.69267" lon="7.15655">
        <ele>367.1</ele>
        <time>2023-12-08T13:18:51Z</time>
      </trkpt>
      <trkpt lat="48.69248" lon="7.15644">
        <ele>366.6</ele>
        <time>2023-12-08T13:18:59Z</time>
      </trkpt>
      <trkpt lat="48.69229" lon="7.15634">
        <ele>366.3</ele>
        <time>2023-12-08T13:19:06Z</time>
      </trkpt>
      <trkpt lat="48.6921" lon="7.15623">
        <ele>366.1</ele>
        <time>2023-12-08T13:19:13Z</time>
      </trkpt>
      <trkpt lat="48.69192" lon="7.15609">
        <ele>366</ele>
        <time>2023-12-08T13:19:20Z</time>
      </trkpt>
      <trkpt lat="48.69178" lon="7.15591">
        <ele>365.9</ele>
        <time>2023-12-08T13:19:26Z</time>
      </trkpt>
      <trkpt lat="48.69168" lon="7.15568">
        <ele>366.1</ele>
        <time>2023-12-08T13:19:32Z</time>
      </trkpt>
      <trkpt lat="48.69151" lon="7.15565">
        <ele>366</ele>
        <time>2023-12-08T13:19:38Z</time>
      </trkpt>
      <trkpt lat="48.69131" lon="7.15571">
        <ele>366.1</ele>
        <time>2023-12-08T13:19:45Z</time>
      </trkpt>
      <trkpt lat="48.69112" lon="7.15565">
        <ele>366.1</ele>
        <time>2023-12-08T13:19:53Z</time>
      </trkpt>
      <trkpt lat="48.69093" lon="7.15555">
        <ele>366.2</ele>
        <time>2023-12-08T13:20:01Z</time>
      </trkpt>
      <trkpt lat="48.69077" lon="7.15544">
        <ele>366.4</ele>
        <time>2023-12-08T13:20:08Z</time>
      </trkpt>
      <trkpt lat="48.6906" lon="7.15535">
        <ele>366.6</ele>
        <time>2023-12-08T13:20:14Z</time>
      </trkpt>
      <trkpt lat="48.69041" lon="7.15523">
        <ele>366.9</ele>
        <time>2023-12-08T13:20:22Z</time>
      </trkpt>
      <trkpt lat="48.69023" lon="7.15512">
        <ele>367.4</ele>
        <time>2023-12-08T13:20:29Z</time>
      </trkpt>
      <trkpt lat="48.69006" lon="7.15499">
        <ele>367.9</ele>
        <time>2023-12-08T13:20:37Z</time>
      </trkpt>
      <trkpt lat="48.68988" lon="7.1549">
        <ele>368.5</ele>
        <time>2023-12-08T13:20:44Z</time>
      </trkpt>
      <trkpt lat="48.68969" lon="7.15483">
        <ele>369.2</ele>
        <time>2023-12-08T13:20:51Z</time>
      </trkpt>
      <trkpt lat="48.68951" lon="7.15474">
        <ele>369.8</ele>
        <time>2023-12-08T13:20:58Z</time>
      </trkpt>
      <trkpt lat="48.68932" lon="7.15463">
        <ele>370.3</ele>
        <time>2023-12-08T13:21:05Z</time>
      </trkpt>
      <trkpt lat="48.68913" lon="7.15452">
        <ele>370.8</ele>
        <time>2023-12-08T13:21:12Z</time>
      </trkpt>
      <trkpt lat="48.68896" lon="7.15442">
        <ele>371.2</ele>
        <time>2023-12-08T13:21:18Z</time>
      </trkpt>
      <trkpt lat="48.68878" lon="7.15432">
        <ele>371.6</ele>
        <time>2023-12-08T13:21:24Z</time>
      </trkpt>
      <trkpt lat="48.68862" lon="7.15419">
        <ele>372</ele>
        <time>2023-12-08T13:21:31Z</time>
      </trkpt>
      <trkpt lat="48.68843" lon="7.15407">
        <ele>372.4</ele>
        <time>2023-12-08T13:21:38Z</time>
      </trkpt>
      <trkpt lat="48.68823" lon="7.15401">
        <ele>372.9</ele>
        <time>2023-12-08T13:21:45Z</time>
      </trkpt>
      <trkpt lat="48.68805" lon="7.15393">
        <ele>373.3</ele>
        <time>2023-12-08T13:21:51Z</time>
      </trkpt>
      <trkpt lat="48.68786" lon="7.15384">
        <ele>373.9</ele>
        <time>2023-12-08T13:21:58Z</time>
      </trkpt>
      <trkpt lat="48.68769" lon="7.15375">
        <ele>374.6</ele>
        <time>2023-12-08T13:22:05Z</time>
      </trkpt>
      <trkpt lat="48.68749" lon="7.1537">
        <ele>375.2</ele>
        <time>2023-12-08T13:22:12Z</time>
      </trkpt>
      <trkpt lat="48.68731" lon="7.15364">
        <ele>375.9</ele>
        <time>2023-12-08T13:22:18Z</time>
      </trkpt>
      <trkpt lat="48.68711" lon="7.1536">
        <ele>376.8</ele>
        <time>2023-12-08T13:22:26Z</time>
      </trkpt>
      <trkpt lat="48.68693" lon="7.15359">
        <ele>377.6</ele>
        <time>2023-12-08T13:22:33Z</time>
      </trkpt>
      <trkpt lat="48.68675" lon="7.15352">
        <ele>378.4</ele>
        <time>2023-12-08T13:22:39Z</time>
      </trkpt>
      <trkpt lat="48.68656" lon="7.15347">
        <ele>379.4</ele>
        <time>2023-12-08T13:22:46Z</time>
      </trkpt>
      <trkpt lat="48.68638" lon="7.15345">
        <ele>380.3</ele>
        <time>2023-12-08T13:22:53Z</time>
      </trkpt>
      <trkpt lat="48.68618" lon="7.15343">
        <ele>381.4</ele>
        <time>2023-12-08T13:23:01Z</time>
      </trkpt>
      <trkpt lat="48.68599" lon="7.15353">
        <ele>382.3</ele>
        <time>2023-12-08T13:23:08Z</time>
      </trkpt>
      <trkpt lat="48.6858" lon="7.15356">
        <ele>383.2</ele>
        <time>2023-12-08T13:23:15Z</time>
      </trkpt>
      <trkpt lat="48.6856" lon="7.15358">
        <ele>384.2</ele>
        <time>2023-12-08T13:23:22Z</time>
      </trkpt>
      <trkpt lat="48.68541" lon="7.15361">
        <ele>385.1</ele>
        <time>2023-12-08T13:23:29Z</time>
      </trkpt>
      <trkpt lat="48.68522" lon="7.15367">
        <ele>386</ele>
        <time>2023-12-08T13:23:36Z</time>
      </trkpt>
      <trkpt lat="48.68503" lon="7.15376">
        <ele>386.9</ele>
        <time>2023-12-08T13:23:43Z</time>
      </trkpt>
      <trkpt lat="48.68486" lon="7.15387">
        <ele>387.8</ele>
        <time>2023-12-08T13:23:50Z</time>
      </trkpt>
      <trkpt lat="48.68469" lon="7.15399">
        <ele>388.7</ele>
        <time>2023-12-08T13:23:57Z</time>
      </trkpt>
      <trkpt lat="48.6845" lon="7.15412">
        <ele>389.8</ele>
        <time>2023-12-08T13:24:04Z</time>
      </trkpt>
      <trkpt lat="48.68432" lon="7.15424">
        <ele>390.7</ele>
        <time>2023-12-08T13:24:11Z</time>
      </trkpt>
      <trkpt lat="48.68414" lon="7.15433">
        <ele>391.7</ele>
        <time>2023-12-08T13:24:17Z</time>
      </trkpt>
      <trkpt lat="48.68398" lon="7.15423">
        <ele>392</ele>
        <time>2023-12-08T13:24:25Z</time>
      </trkpt>
      <trkpt lat="48.68393" lon="7.15395">
        <ele>391.7</ele>
        <time>2023-12-08T13:24:36Z</time>
      </trkpt>
      <trkpt lat="48.68389" lon="7.15368">
        <ele>391.5</ele>
        <time>2023-12-08T13:24:42Z</time>
      </trkpt>
      <trkpt lat="48.68384" lon="7.15341">
        <ele>391.2</ele>
        <time>2023-12-08T13:24:48Z</time>
      </trkpt>
      <trkpt lat="48.68379" lon="7.15314">
        <ele>391</ele>
        <time>2023-12-08T13:24:54Z</time>
      </trkpt>
      <trkpt lat="48.68372" lon="7.15288">
        <ele>390.8</ele>
        <time>2023-12-08T13:25:00Z</time>
      </trkpt>
      <trkpt lat="48.68365" lon="7.15259">
        <ele>390.5</ele>
        <time>2023-12-08T13:25:07Z</time>
      </trkpt>
      <trkpt lat="48.68359" lon="7.15232">
        <ele>390.2</ele>
        <time>2023-12-08T13:25:13Z</time>
      </trkpt>
      <trkpt lat="48.68351" lon="7.15203">
        <ele>390</ele>
        <time>2023-12-08T13:25:20Z</time>
      </trkpt>
      <trkpt lat="48.68344" lon="7.15173">
        <ele>389.7</ele>
        <time>2023-12-08T13:25:27Z</time>
      </trkpt>
      <trkpt lat="48.68337" lon="7.15144">
        <ele>389.4</ele>
        <time>2023-12-08T13:25:34Z</time>
      </trkpt>
      <trkpt lat="48.68332" lon="7.15113">
        <ele>389.1</ele>
        <time>2023-12-08T13:25:41Z</time>
      </trkpt>
      <trkpt lat="48.68326" lon="7.15083">
        <ele>388.9</ele>
        <time>2023-12-08T13:25:48Z</time>
      </trkpt>
      <trkpt lat="48.68318" lon="7.15056">
        <ele>388.6</ele>
        <time>2023-12-08T13:25:55Z</time>
      </trkpt>
      <trkpt lat="48.68311" lon="7.15031">
        <ele>388.4</ele>
        <time>2023-12-08T13:26:01Z</time>
      </trkpt>
      <trkpt lat="48.68304" lon="7.15005">
        <ele>388.1</ele>
        <time>2023-12-08T13:26:08Z</time>
      </trkpt>
      <trkpt lat="48.68297" lon="7.14976">
        <ele>387.9</ele>
        <time>2023-12-08T13:26:16Z</time>
      </trkpt>
      <trkpt lat="48.68291" lon="7.14947">
        <ele>387.6</ele>
        <time>2023-12-08T13:26:23Z</time>
      </trkpt>
      <trkpt lat="48.68286" lon="7.14921">
        <ele>387.4</ele>
        <time>2023-12-08T13:26:29Z</time>
      </trkpt>
      <trkpt lat="48.6828" lon="7.14894">
        <ele>387.1</ele>
        <time>2023-12-08T13:26:35Z</time>
      </trkpt>
      <trkpt lat="48.68274" lon="7.14868">
        <ele>386.9</ele>
        <time>2023-12-08T13:26:42Z</time>
      </trkpt>
      <trkpt lat="48.6827" lon="7.14838">
        <ele>386.6</ele>
        <time>2023-12-08T13:26:49Z</time>
      </trkpt>
      <trkpt lat="48.68265" lon="7.14807">
        <ele>386.3</ele>
        <time>2023-12-08T13:26:56Z</time>
      </trkpt>
      <trkpt lat="48.68258" lon="7.1478">
        <ele>386.1</ele>
        <time>2023-12-08T13:27:01Z</time>
      </trkpt>
      <trkpt lat="48.68252" lon="7.14748">
        <ele>385.8</ele>
        <time>2023-12-08T13:27:07Z</time>
      </trkpt>
      <trkpt lat="48.68246" lon="7.14717">
        <ele>385.5</ele>
        <time>2023-12-08T13:27:12Z</time>
      </trkpt>
      <trkpt lat="48.68242" lon="7.14688">
        <ele>385.3</ele>
        <time>2023-12-08T13:27:18Z</time>
      </trkpt>
      <trkpt lat="48.68237" lon="7.14662">
        <ele>385</ele>
        <time>2023-12-08T13:27:24Z</time>
      </trkpt>
      <trkpt lat="48.6823" lon="7.14635">
        <ele>384.8</ele>
        <time>2023-12-08T13:27:30Z</time>
      </trkpt>
      <trkpt lat="48.68225" lon="7.14608">
        <ele>384.5</ele>
        <time>2023-12-08T13:27:36Z</time>
      </trkpt>
      <trkpt lat="48.68219" lon="7.14579">
        <ele>384.3</ele>
        <time>2023-12-08T13:27:43Z</time>
      </trkpt>
      <trkpt lat="48.68215" lon="7.14551">
        <ele>384</ele>
        <time>2023-12-08T13:27:50Z</time>
      </trkpt>
      <trkpt lat="48.68209" lon="7.1452">
        <ele>383.7</ele>
        <time>2023-12-08T13:27:57Z</time>
      </trkpt>
      <trkpt lat="48.68202" lon="7.14494">
        <ele>383.5</ele>
        <time>2023-12-08T13:28:03Z</time>
      </trkpt>
      <trkpt lat="48.68196" lon="7.14467">
        <ele>383.2</ele>
        <time>2023-12-08T13:28:09Z</time>
      </trkpt>
      <trkpt lat="48.68191" lon="7.14438">
        <ele>383</ele>
        <time>2023-12-08T13:28:16Z</time>
      </trkpt>
      <trkpt lat="48.68185" lon="7.14412">
        <ele>382.7</ele>
        <time>2023-12-08T13:28:22Z</time>
      </trkpt>
      <trkpt lat="48.68177" lon="7.14385">
        <ele>382.3</ele>
        <time>2023-12-08T13:28:29Z</time>
      </trkpt>
      <trkpt lat="48.6817" lon="7.14358">
        <ele>381.7</ele>
        <time>2023-12-08T13:28:36Z</time>
      </trkpt>
      <trkpt lat="48.68163" lon="7.14331">
        <ele>381.1</ele>
        <time>2023-12-08T13:28:45Z</time>
      </trkpt>
      <trkpt lat="48.68156" lon="7.14303">
        <ele>380.5</ele>
        <time>2023-12-08T13:28:54Z</time>
      </trkpt>
      <trkpt lat="48.68149" lon="7.14276">
        <ele>379.9</ele>
        <time>2023-12-08T13:29:02Z</time>
      </trkpt>
      <trkpt lat="48.68142" lon="7.1425">
        <ele>379.3</ele>
        <time>2023-12-08T13:29:09Z</time>
      </trkpt>
      <trkpt lat="48.68137" lon="7.14223">
        <ele>378.8</ele>
        <time>2023-12-08T13:29:16Z</time>
      </trkpt>
      <trkpt lat="48.6813" lon="7.14195">
        <ele>378.2</ele>
        <time>2023-12-08T13:29:23Z</time>
      </trkpt>
      <trkpt lat="48.68123" lon="7.14167">
        <ele>377.6</ele>
        <time>2023-12-08T13:29:29Z</time>
      </trkpt>
      <trkpt lat="48.68116" lon="7.1414">
        <ele>377</ele>
        <time>2023-12-08T13:29:35Z</time>
      </trkpt>
      <trkpt lat="48.68109" lon="7.14111">
        <ele>376.4</ele>
        <time>2023-12-08T13:29:42Z</time>
      </trkpt>
      <trkpt lat="48.68103" lon="7.14083">
        <ele>375.8</ele>
        <time>2023-12-08T13:29:49Z</time>
      </trkpt>
      <trkpt lat="48.68097" lon="7.14057">
        <ele>375.2</ele>
        <time>2023-12-08T13:29:56Z</time>
      </trkpt>
      <trkpt lat="48.68094" lon="7.14029">
        <ele>374.6</ele>
        <time>2023-12-08T13:30:02Z</time>
      </trkpt>
      <trkpt lat="48.68088" lon="7.14">
        <ele>374</ele>
        <time>2023-12-08T13:30:10Z</time>
      </trkpt>
      <trkpt lat="48.6808" lon="7.13975">
        <ele>373.4</ele>
        <time>2023-12-08T13:30:17Z</time>
      </trkpt>
      <trkpt lat="48.68076" lon="7.13948">
        <ele>372.9</ele>
        <time>2023-12-08T13:30:24Z</time>
      </trkpt>
      <trkpt lat="48.6807" lon="7.13921">
        <ele>372.3</ele>
        <time>2023-12-08T13:30:31Z</time>
      </trkpt>
      <trkpt lat="48.68065" lon="7.13894">
        <ele>371.8</ele>
        <time>2023-12-08T13:30:38Z</time>
      </trkpt>
      <trkpt lat="48.68059" lon="7.13866">
        <ele>371.1</ele>
        <time>2023-12-08T13:30:45Z</time>
      </trkpt>
      <trkpt lat="48.68049" lon="7.13841">
        <ele>370.6</ele>
        <time>2023-12-08T13:30:52Z</time>
      </trkpt>
      <trkpt lat="48.68042" lon="7.13813">
        <ele>369.9</ele>
        <time>2023-12-08T13:31:00Z</time>
      </trkpt>
      <trkpt lat="48.68037" lon="7.13783">
        <ele>369.3</ele>
        <time>2023-12-08T13:31:08Z</time>
      </trkpt>
      <trkpt lat="48.68032" lon="7.13753">
        <ele>368.7</ele>
        <time>2023-12-08T13:31:16Z</time>
      </trkpt>
      <trkpt lat="48.68025" lon="7.13724">
        <ele>368.1</ele>
        <time>2023-12-08T13:31:24Z</time>
      </trkpt>
      <trkpt lat="48.68017" lon="7.13693">
        <ele>367.4</ele>
        <time>2023-12-08T13:31:32Z</time>
      </trkpt>
      <trkpt lat="48.6801" lon="7.13665">
        <ele>366.8</ele>
        <time>2023-12-08T13:31:39Z</time>
      </trkpt>
      <trkpt lat="48.68005" lon="7.13637">
        <ele>366.2</ele>
        <time>2023-12-08T13:31:46Z</time>
      </trkpt>
      <trkpt lat="48.68001" lon="7.1361">
        <ele>365.6</ele>
        <time>2023-12-08T13:31:52Z</time>
      </trkpt>
      <trkpt lat="48.67997" lon="7.13583">
        <ele>365.1</ele>
        <time>2023-12-08T13:31:58Z</time>
      </trkpt>
      <trkpt lat="48.6799" lon="7.13556">
        <ele>364.5</ele>
        <time>2023-12-08T13:32:06Z</time>
      </trkpt>
      <trkpt lat="48.67986" lon="7.13528">
        <ele>363.9</ele>
        <time>2023-12-08T13:32:14Z</time>
      </trkpt>
      <trkpt lat="48.67979" lon="7.13503">
        <ele>363.4</ele>
        <time>2023-12-08T13:32:22Z</time>
      </trkpt>
      <trkpt lat="48.67971" lon="7.13476">
        <ele>362.8</ele>
        <time>2023-12-08T13:32:31Z</time>
      </trkpt>
      <trkpt lat="48.67961" lon="7.13452">
        <ele>362.2</ele>
        <time>2023-12-08T13:32:39Z</time>
      </trkpt>
      <trkpt lat="48.67953" lon="7.13424">
        <ele>361.6</ele>
        <time>2023-12-08T13:32:47Z</time>
      </trkpt>
      <trkpt lat="48.67939" lon="7.13404">
        <ele>361</ele>
        <time>2023-12-08T13:32:55Z</time>
      </trkpt>
      <trkpt lat="48.67924" lon="7.13384">
        <ele>360.4</ele>
        <time>2023-12-08T13:33:03Z</time>
      </trkpt>
      <trkpt lat="48.67909" lon="7.13364">
        <ele>359.8</ele>
        <time>2023-12-08T13:33:10Z</time>
      </trkpt>
      <trkpt lat="48.67898" lon="7.13341">
        <ele>359.2</ele>
        <time>2023-12-08T13:33:18Z</time>
      </trkpt>
      <trkpt lat="48.67894" lon="7.13311">
        <ele>358.6</ele>
        <time>2023-12-08T13:33:26Z</time>
      </trkpt>
      <trkpt lat="48.67891" lon="7.13306">
        <ele>358.2</ele>
        <time>2023-12-08T13:33:27Z</time>
      </trkpt>
      <trkpt lat="48.67878" lon="7.13288">
        <ele>356.1</ele>
        <time>2023-12-08T13:33:37Z</time>
      </trkpt>
      <trkpt lat="48.67864" lon="7.13269">
        <ele>353.4</ele>
        <time>2023-12-08T13:33:47Z</time>
      </trkpt>
      <trkpt lat="48.67849" lon="7.13251">
        <ele>350.4</ele>
        <time>2023-12-08T13:33:56Z</time>
      </trkpt>
      <trkpt lat="48.67837" lon="7.13231">
        <ele>346.8</ele>
        <time>2023-12-08T13:34:05Z</time>
      </trkpt>
      <trkpt lat="48.67826" lon="7.13209">
        <ele>343.2</ele>
        <time>2023-12-08T13:34:14Z</time>
      </trkpt>
      <trkpt lat="48.67814" lon="7.13186">
        <ele>340</ele>
        <time>2023-12-08T13:34:23Z</time>
      </trkpt>
      <trkpt lat="48.67801" lon="7.13163">
        <ele>336.9</ele>
        <time>2023-12-08T13:34:32Z</time>
      </trkpt>
      <trkpt lat="48.67789" lon="7.1314">
        <ele>333.7</ele>
        <time>2023-12-08T13:34:42Z</time>
      </trkpt>
      <trkpt lat="48.67775" lon="7.13122">
        <ele>330.8</ele>
        <time>2023-12-08T13:34:50Z</time>
      </trkpt>
      <trkpt lat="48.67758" lon="7.13107">
        <ele>327.6</ele>
        <time>2023-12-08T13:35:00Z</time>
      </trkpt>
      <trkpt lat="48.67753" lon="7.13099">
        <ele>326.1</ele>
        <time>2023-12-08T13:35:04Z</time>
      </trkpt>
      <trkpt lat="48.67746" lon="7.13074">
        <ele>322.9</ele>
        <time>2023-12-08T13:35:11Z</time>
      </trkpt>
      <trkpt lat="48.67728" lon="7.13063">
        <ele>318.6</ele>
        <time>2023-12-08T13:35:20Z</time>
      </trkpt>
      <trkpt lat="48.67709" lon="7.1306">
        <ele>315.8</ele>
        <time>2023-12-08T13:35:31Z</time>
      </trkpt>
      <trkpt lat="48.67691" lon="7.13058">
        <ele>312.1</ele>
        <time>2023-12-08T13:35:45Z</time>
      </trkpt>
      <trkpt lat="48.67679" lon="7.13057">
        <ele>310</ele>
        <time>2023-12-08T13:35:50Z</time>
      </trkpt>
      <trkpt lat="48.67677" lon="7.13051">
        <ele>308</ele>
        <time>2023-12-08T13:35:52Z</time>
      </trkpt>
      <trkpt lat="48.67676" lon="7.13021">
        <ele>305.4</ele>
        <time>2023-12-08T13:36:01Z</time>
      </trkpt>
      <trkpt lat="48.67672" lon="7.12991">
        <ele>302.4</ele>
        <time>2023-12-08T13:36:10Z</time>
      </trkpt>
      <trkpt lat="48.67668" lon="7.12964">
        <ele>299.1</ele>
        <time>2023-12-08T13:36:18Z</time>
      </trkpt>
      <trkpt lat="48.67677" lon="7.12937">
        <ele>298.1</ele>
        <time>2023-12-08T13:36:26Z</time>
      </trkpt>
      <trkpt lat="48.67689" lon="7.12917">
        <ele>297.6</ele>
        <time>2023-12-08T13:36:33Z</time>
      </trkpt>
      <trkpt lat="48.67702" lon="7.12893">
        <ele>297.3</ele>
        <time>2023-12-08T13:36:41Z</time>
      </trkpt>
      <trkpt lat="48.67709" lon="7.12875">
        <ele>296.7</ele>
        <time>2023-12-08T13:36:47Z</time>
      </trkpt>
      <trkpt lat="48.67698" lon="7.1285">
        <ele>296.2</ele>
        <time>2023-12-08T13:36:54Z</time>
      </trkpt>
      <trkpt lat="48.67686" lon="7.12825">
        <ele>296.1</ele>
        <time>2023-12-08T13:37:02Z</time>
      </trkpt>
      <trkpt lat="48.67675" lon="7.12802">
        <ele>296.2</ele>
        <time>2023-12-08T13:37:09Z</time>
      </trkpt>
      <trkpt lat="48.67664" lon="7.1278">
        <ele>296.4</ele>
        <time>2023-12-08T13:37:16Z</time>
      </trkpt>
      <trkpt lat="48.67652" lon="7.12756">
        <ele>297.2</ele>
        <time>2023-12-08T13:37:24Z</time>
      </trkpt>
      <trkpt lat="48.67642" lon="7.12733">
        <ele>298.2</ele>
        <time>2023-12-08T13:37:31Z</time>
      </trkpt>
      <trkpt lat="48.67638" lon="7.12705">
        <ele>299.6</ele>
        <time>2023-12-08T13:37:39Z</time>
      </trkpt>
      <trkpt lat="48.67642" lon="7.12678">
        <ele>300.8</ele>
        <time>2023-12-08T13:37:47Z</time>
      </trkpt>
      <trkpt lat="48.67645" lon="7.1265">
        <ele>302.2</ele>
        <time>2023-12-08T13:37:55Z</time>
      </trkpt>
      <trkpt lat="48.67649" lon="7.1262">
        <ele>303.3</ele>
        <time>2023-12-08T13:38:03Z</time>
      </trkpt>
      <trkpt lat="48.67648" lon="7.1259">
        <ele>303.6</ele>
        <time>2023-12-08T13:38:11Z</time>
      </trkpt>
      <trkpt lat="48.67642" lon="7.12562">
        <ele>303.5</ele>
        <time>2023-12-08T13:38:18Z</time>
      </trkpt>
      <trkpt lat="48.67636" lon="7.12536">
        <ele>303.4</ele>
        <time>2023-12-08T13:38:24Z</time>
      </trkpt>
      <trkpt lat="48.67625" lon="7.12512">
        <ele>303.4</ele>
        <time>2023-12-08T13:38:31Z</time>
      </trkpt>
      <trkpt lat="48.6763" lon="7.12492">
        <ele>302.1</ele>
        <time>2023-12-08T13:38:38Z</time>
      </trkpt>
      <trkpt lat="48.67649" lon="7.12488">
        <ele>300.2</ele>
        <time>2023-12-08T13:38:44Z</time>
      </trkpt>
      <trkpt lat="48.67662" lon="7.12509">
        <ele>299.4</ele>
        <time>2023-12-08T13:38:50Z</time>
      </trkpt>
      <trkpt lat="48.67675" lon="7.12531">
        <ele>298.3</ele>
        <time>2023-12-08T13:38:56Z</time>
      </trkpt>
      <trkpt lat="48.67692" lon="7.12543">
        <ele>297.4</ele>
        <time>2023-12-08T13:39:02Z</time>
      </trkpt>
      <trkpt lat="48.6771" lon="7.12533">
        <ele>296.9</ele>
        <time>2023-12-08T13:39:09Z</time>
      </trkpt>
      <trkpt lat="48.67725" lon="7.12514">
        <ele>296.7</ele>
        <time>2023-12-08T13:39:16Z</time>
      </trkpt>
      <trkpt lat="48.67738" lon="7.12494">
        <ele>296.3</ele>
        <time>2023-12-08T13:39:23Z</time>
      </trkpt>
      <trkpt lat="48.67736" lon="7.12463">
        <ele>295.5</ele>
        <time>2023-12-08T13:39:30Z</time>
      </trkpt>
      <trkpt lat="48.67727" lon="7.12434">
        <ele>295</ele>
        <time>2023-12-08T13:39:37Z</time>
      </trkpt>
      <trkpt lat="48.67718" lon="7.12406">
        <ele>294.6</ele>
        <time>2023-12-08T13:39:44Z</time>
      </trkpt>
      <trkpt lat="48.67707" lon="7.12381">
        <ele>294.3</ele>
        <time>2023-12-08T13:39:51Z</time>
      </trkpt>
      <trkpt lat="48.67696" lon="7.12355">
        <ele>294</ele>
        <time>2023-12-08T13:39:58Z</time>
      </trkpt>
      <trkpt lat="48.67681" lon="7.12334">
        <ele>293.8</ele>
        <time>2023-12-08T13:40:05Z</time>
      </trkpt>
      <trkpt lat="48.67667" lon="7.12312">
        <ele>293.7</ele>
        <time>2023-12-08T13:40:12Z</time>
      </trkpt>
      <trkpt lat="48.67655" lon="7.12289">
        <ele>293.7</ele>
        <time>2023-12-08T13:40:19Z</time>
      </trkpt>
      <trkpt lat="48.6764" lon="7.12268">
        <ele>293.6</ele>
        <time>2023-12-08T13:40:26Z</time>
      </trkpt>
      <trkpt lat="48.67628" lon="7.12248">
        <ele>293.5</ele>
        <time>2023-12-08T13:40:32Z</time>
      </trkpt>
      <trkpt lat="48.67615" lon="7.12228">
        <ele>293.5</ele>
        <time>2023-12-08T13:40:39Z</time>
      </trkpt>
      <trkpt lat="48.67603" lon="7.12206">
        <ele>293.5</ele>
        <time>2023-12-08T13:40:46Z</time>
      </trkpt>
      <trkpt lat="48.67591" lon="7.12185">
        <ele>293.5</ele>
        <time>2023-12-08T13:40:53Z</time>
      </trkpt>
      <trkpt lat="48.67579" lon="7.12162">
        <ele>293.4</ele>
        <time>2023-12-08T13:41:00Z</time>
      </trkpt>
      <trkpt lat="48.67566" lon="7.1214">
        <ele>293.4</ele>
        <time>2023-12-08T13:41:07Z</time>
      </trkpt>
      <trkpt lat="48.67554" lon="7.12117">
        <ele>293.4</ele>
        <time>2023-12-08T13:41:14Z</time>
      </trkpt>
      <trkpt lat="48.67542" lon="7.12093">
        <ele>293.4</ele>
        <time>2023-12-08T13:41:21Z</time>
      </trkpt>
      <trkpt lat="48.67531" lon="7.12068">
        <ele>293.3</ele>
        <time>2023-12-08T13:41:28Z</time>
      </trkpt>
      <trkpt lat="48.6752" lon="7.12042">
        <ele>293.3</ele>
        <time>2023-12-08T13:41:35Z</time>
      </trkpt>
      <trkpt lat="48.67508" lon="7.12019">
        <ele>293.4</ele>
        <time>2023-12-08T13:41:42Z</time>
      </trkpt>
      <trkpt lat="48.67492" lon="7.12002">
        <ele>293.4</ele>
        <time>2023-12-08T13:41:49Z</time>
      </trkpt>
      <trkpt lat="48.67475" lon="7.11988">
        <ele>293.5</ele>
        <time>2023-12-08T13:41:56Z</time>
      </trkpt>
      <trkpt lat="48.67458" lon="7.11976">
        <ele>293.5</ele>
        <time>2023-12-08T13:42:03Z</time>
      </trkpt>
      <trkpt lat="48.6744" lon="7.11963">
        <ele>293.3</ele>
        <time>2023-12-08T13:42:10Z</time>
      </trkpt>
      <trkpt lat="48.67421" lon="7.11953">
        <ele>293.1</ele>
        <time>2023-12-08T13:42:17Z</time>
      </trkpt>
      <trkpt lat="48.67404" lon="7.11937">
        <ele>292.8</ele>
        <time>2023-12-08T13:42:24Z</time>
      </trkpt>
      <trkpt lat="48.67388" lon="7.1192">
        <ele>292.6</ele>
        <time>2023-12-08T13:42:31Z</time>
      </trkpt>
      <trkpt lat="48.67373" lon="7.11905">
        <ele>292.4</ele>
        <time>2023-12-08T13:42:37Z</time>
      </trkpt>
      <trkpt lat="48.67356" lon="7.11888">
        <ele>292.1</ele>
        <time>2023-12-08T13:42:44Z</time>
      </trkpt>
      <trkpt lat="48.67339" lon="7.11873">
        <ele>291.7</ele>
        <time>2023-12-08T13:42:51Z</time>
      </trkpt>
      <trkpt lat="48.67323" lon="7.11855">
        <ele>291.5</ele>
        <time>2023-12-08T13:42:58Z</time>
      </trkpt>
      <trkpt lat="48.67308" lon="7.11841">
        <ele>291.3</ele>
        <time>2023-12-08T13:43:04Z</time>
      </trkpt>
      <trkpt lat="48.67292" lon="7.11827">
        <ele>291.1</ele>
        <time>2023-12-08T13:43:10Z</time>
      </trkpt>
      <trkpt lat="48.67277" lon="7.11812">
        <ele>290.9</ele>
        <time>2023-12-08T13:43:16Z</time>
      </trkpt>
      <trkpt lat="48.67262" lon="7.11797">
        <ele>290.8</ele>
        <time>2023-12-08T13:43:22Z</time>
      </trkpt>
      <trkpt lat="48.67245" lon="7.11781">
        <ele>290.7</ele>
        <time>2023-12-08T13:43:29Z</time>
      </trkpt>
      <trkpt lat="48.67229" lon="7.11766">
        <ele>290.6</ele>
        <time>2023-12-08T13:43:36Z</time>
      </trkpt>
      <trkpt lat="48.67211" lon="7.11752">
        <ele>290.6</ele>
        <time>2023-12-08T13:43:43Z</time>
      </trkpt>
      <trkpt lat="48.67194" lon="7.11735">
        <ele>290.6</ele>
        <time>2023-12-08T13:43:50Z</time>
      </trkpt>
      <trkpt lat="48.67177" lon="7.11724">
        <ele>290.7</ele>
        <time>2023-12-08T13:43:56Z</time>
      </trkpt>
      <trkpt lat="48.67159" lon="7.11711">
        <ele>290.6</ele>
        <time>2023-12-08T13:44:03Z</time>
      </trkpt>
      <trkpt lat="48.67141" lon="7.11699">
        <ele>290.4</ele>
        <time>2023-12-08T13:44:10Z</time>
      </trkpt>
      <trkpt lat="48.67123" lon="7.11686">
        <ele>290.2</ele>
        <time>2023-12-08T13:44:17Z</time>
      </trkpt>
      <trkpt lat="48.67105" lon="7.11672">
        <ele>290</ele>
        <time>2023-12-08T13:44:24Z</time>
      </trkpt>
      <trkpt lat="48.67089" lon="7.11653">
        <ele>289.8</ele>
        <time>2023-12-08T13:44:31Z</time>
      </trkpt>
      <trkpt lat="48.67073" lon="7.11633">
        <ele>289.7</ele>
        <time>2023-12-08T13:44:38Z</time>
      </trkpt>
      <trkpt lat="48.67061" lon="7.1161">
        <ele>289.6</ele>
        <time>2023-12-08T13:44:45Z</time>
      </trkpt>
      <trkpt lat="48.67049" lon="7.11586">
        <ele>289.7</ele>
        <time>2023-12-08T13:44:52Z</time>
      </trkpt>
      <trkpt lat="48.67039" lon="7.11559">
        <ele>289.7</ele>
        <time>2023-12-08T13:44:59Z</time>
      </trkpt>
      <trkpt lat="48.67032" lon="7.11538">
        <ele>289.8</ele>
        <time>2023-12-08T13:45:05Z</time>
      </trkpt>
      <trkpt lat="48.67031" lon="7.11533">
        <ele>289.8</ele>
        <time>2023-12-08T13:45:10Z</time>
      </trkpt>
      <trkpt lat="48.67027" lon="7.11506">
        <ele>289.6</ele>
        <time>2023-12-08T13:45:17Z</time>
      </trkpt>
      <trkpt lat="48.67023" lon="7.11479">
        <ele>289.5</ele>
        <time>2023-12-08T13:45:23Z</time>
      </trkpt>
      <trkpt lat="48.67019" lon="7.11452">
        <ele>289.4</ele>
        <time>2023-12-08T13:45:29Z</time>
      </trkpt>
      <trkpt lat="48.67014" lon="7.11424">
        <ele>289.2</ele>
        <time>2023-12-08T13:45:36Z</time>
      </trkpt>
      <trkpt lat="48.6701" lon="7.11394">
        <ele>289</ele>
        <time>2023-12-08T13:45:43Z</time>
      </trkpt>
      <trkpt lat="48.67006" lon="7.11364">
        <ele>288.9</ele>
        <time>2023-12-08T13:45:50Z</time>
      </trkpt>
      <trkpt lat="48.67002" lon="7.11334">
        <ele>288.8</ele>
        <time>2023-12-08T13:45:57Z</time>
      </trkpt>
      <trkpt lat="48.66997" lon="7.11304">
        <ele>288.6</ele>
        <time>2023-12-08T13:46:04Z</time>
      </trkpt>
      <trkpt lat="48.66994" lon="7.11275">
        <ele>288.5</ele>
        <time>2023-12-08T13:46:11Z</time>
      </trkpt>
      <trkpt lat="48.66991" lon="7.11247">
        <ele>288.4</ele>
        <time>2023-12-08T13:46:18Z</time>
      </trkpt>
      <trkpt lat="48.66988" lon="7.11218">
        <ele>288.3</ele>
        <time>2023-12-08T13:46:25Z</time>
      </trkpt>
      <trkpt lat="48.66987" lon="7.11189">
        <ele>288.3</ele>
        <time>2023-12-08T13:46:32Z</time>
      </trkpt>
      <trkpt lat="48.66987" lon="7.11158">
        <ele>288.2</ele>
        <time>2023-12-08T13:46:39Z</time>
      </trkpt>
      <trkpt lat="48.66989" lon="7.1113">
        <ele>288.1</ele>
        <time>2023-12-08T13:46:46Z</time>
      </trkpt>
      <trkpt lat="48.66994" lon="7.11103">
        <ele>288.1</ele>
        <time>2023-12-08T13:46:53Z</time>
      </trkpt>
      <trkpt lat="48.67" lon="7.11075">
        <ele>288</ele>
        <time>2023-12-08T13:47:00Z</time>
      </trkpt>
      <trkpt lat="48.67006" lon="7.11047">
        <ele>287.8</ele>
        <time>2023-12-08T13:47:07Z</time>
      </trkpt>
      <trkpt lat="48.67011" lon="7.1102">
        <ele>287.7</ele>
        <time>2023-12-08T13:47:14Z</time>
      </trkpt>
      <trkpt lat="48.67018" lon="7.10992">
        <ele>287.6</ele>
        <time>2023-12-08T13:47:21Z</time>
      </trkpt>
      <trkpt lat="48.67024" lon="7.10965">
        <ele>287.5</ele>
        <time>2023-12-08T13:47:28Z</time>
      </trkpt>
      <trkpt lat="48.67031" lon="7.10939">
        <ele>287.5</ele>
        <time>2023-12-08T13:47:35Z</time>
      </trkpt>
      <trkpt lat="48.6704" lon="7.10913">
        <ele>287.4</ele>
        <time>2023-12-08T13:47:42Z</time>
      </trkpt>
      <trkpt lat="48.67051" lon="7.10886">
        <ele>287.3</ele>
        <time>2023-12-08T13:47:49Z</time>
      </trkpt>
      <trkpt lat="48.67061" lon="7.1086">
        <ele>287.2</ele>
        <time>2023-12-08T13:47:56Z</time>
      </trkpt>
      <trkpt lat="48.67071" lon="7.10835">
        <ele>287.2</ele>
        <time>2023-12-08T13:48:03Z</time>
      </trkpt>
      <trkpt lat="48.6708" lon="7.10809">
        <ele>287.3</ele>
        <time>2023-12-08T13:48:10Z</time>
      </trkpt>
      <trkpt lat="48.67089" lon="7.10785">
        <ele>287.3</ele>
        <time>2023-12-08T13:48:17Z</time>
      </trkpt>
      <trkpt lat="48.67097" lon="7.10759">
        <ele>287.2</ele>
        <time>2023-12-08T13:48:24Z</time>
      </trkpt>
      <trkpt lat="48.67105" lon="7.10732">
        <ele>287</ele>
        <time>2023-12-08T13:48:31Z</time>
      </trkpt>
      <trkpt lat="48.67112" lon="7.10704">
        <ele>286.9</ele>
        <time>2023-12-08T13:48:38Z</time>
      </trkpt>
      <trkpt lat="48.67117" lon="7.10676">
        <ele>286.8</ele>
        <time>2023-12-08T13:48:45Z</time>
      </trkpt>
      <trkpt lat="48.67123" lon="7.10647">
        <ele>286.8</ele>
        <time>2023-12-08T13:48:52Z</time>
      </trkpt>
      <trkpt lat="48.67125" lon="7.10617">
        <ele>286.5</ele>
        <time>2023-12-08T13:48:59Z</time>
      </trkpt>
      <trkpt lat="48.67126" lon="7.10589">
        <ele>286.3</ele>
        <time>2023-12-08T13:49:05Z</time>
      </trkpt>
      <trkpt lat="48.67124" lon="7.10558">
        <ele>286</ele>
        <time>2023-12-08T13:49:12Z</time>
      </trkpt>
      <trkpt lat="48.67121" lon="7.10527">
        <ele>285.7</ele>
        <time>2023-12-08T13:49:19Z</time>
      </trkpt>
      <trkpt lat="48.67117" lon="7.10497">
        <ele>285.5</ele>
        <time>2023-12-08T13:49:26Z</time>
      </trkpt>
      <trkpt lat="48.67113" lon="7.10468">
        <ele>285.3</ele>
        <time>2023-12-08T13:49:33Z</time>
      </trkpt>
      <trkpt lat="48.6711" lon="7.10439">
        <ele>285.1</ele>
        <time>2023-12-08T13:49:40Z</time>
      </trkpt>
      <trkpt lat="48.67108" lon="7.1041">
        <ele>285</ele>
        <time>2023-12-08T13:49:47Z</time>
      </trkpt>
      <trkpt lat="48.67106" lon="7.1038">
        <ele>285</ele>
        <time>2023-12-08T13:49:54Z</time>
      </trkpt>
      <trkpt lat="48.67104" lon="7.1035">
        <ele>285</ele>
        <time>2023-12-08T13:50:01Z</time>
      </trkpt>
      <trkpt lat="48.67102" lon="7.10319">
        <ele>285.2</ele>
        <time>2023-12-08T13:50:08Z</time>
      </trkpt>
      <trkpt lat="48.67101" lon="7.10287">
        <ele>285.3</ele>
        <time>2023-12-08T13:50:15Z</time>
      </trkpt>
      <trkpt lat="48.67104" lon="7.1026">
        <ele>285</ele>
        <time>2023-12-08T13:50:21Z</time>
      </trkpt>
      <trkpt lat="48.67106" lon="7.10232">
        <ele>284.7</ele>
        <time>2023-12-08T13:50:27Z</time>
      </trkpt>
      <trkpt lat="48.6711" lon="7.10205">
        <ele>284.4</ele>
        <time>2023-12-08T13:50:33Z</time>
      </trkpt>
      <trkpt lat="48.67117" lon="7.10176">
        <ele>284.2</ele>
        <time>2023-12-08T13:50:40Z</time>
      </trkpt>
      <trkpt lat="48.67123" lon="7.10147">
        <ele>284</ele>
        <time>2023-12-08T13:50:47Z</time>
      </trkpt>
      <trkpt lat="48.6713" lon="7.10118">
        <ele>283.9</ele>
        <time>2023-12-08T13:50:54Z</time>
      </trkpt>
      <trkpt lat="48.67139" lon="7.10091">
        <ele>283.9</ele>
        <time>2023-12-08T13:51:01Z</time>
      </trkpt>
      <trkpt lat="48.6715" lon="7.10064">
        <ele>283.9</ele>
        <time>2023-12-08T13:51:08Z</time>
      </trkpt>
      <trkpt lat="48.6716" lon="7.10038">
        <ele>284</ele>
        <time>2023-12-08T13:51:15Z</time>
      </trkpt>
      <trkpt lat="48.67171" lon="7.10012">
        <ele>284.1</ele>
        <time>2023-12-08T13:51:22Z</time>
      </trkpt>
      <trkpt lat="48.67184" lon="7.0999">
        <ele>284.2</ele>
        <time>2023-12-08T13:51:29Z</time>
      </trkpt>
      <trkpt lat="48.67197" lon="7.09969">
        <ele>284.3</ele>
        <time>2023-12-08T13:51:36Z</time>
      </trkpt>
      <trkpt lat="48.67208" lon="7.09945">
        <ele>284.5</ele>
        <time>2023-12-08T13:51:43Z</time>
      </trkpt>
      <trkpt lat="48.6722" lon="7.09923">
        <ele>284.7</ele>
        <time>2023-12-08T13:51:50Z</time>
      </trkpt>
      <trkpt lat="48.67232" lon="7.09899">
        <ele>284.6</ele>
        <time>2023-12-08T13:51:57Z</time>
      </trkpt>
      <trkpt lat="48.6724" lon="7.09872">
        <ele>284.5</ele>
        <time>2023-12-08T13:52:04Z</time>
      </trkpt>
      <trkpt lat="48.67248" lon="7.09844">
        <ele>284.4</ele>
        <time>2023-12-08T13:52:11Z</time>
      </trkpt>
      <trkpt lat="48.67255" lon="7.09816">
        <ele>284.4</ele>
        <time>2023-12-08T13:52:18Z</time>
      </trkpt>
      <trkpt lat="48.67263" lon="7.09791">
        <ele>284.4</ele>
        <time>2023-12-08T13:52:25Z</time>
      </trkpt>
      <trkpt lat="48.67273" lon="7.09766">
        <ele>284.4</ele>
        <time>2023-12-08T13:52:32Z</time>
      </trkpt>
      <trkpt lat="48.67284" lon="7.09741">
        <ele>284.3</ele>
        <time>2023-12-08T13:52:39Z</time>
      </trkpt>
      <trkpt lat="48.67297" lon="7.09718">
        <ele>284.1</ele>
        <time>2023-12-08T13:52:46Z</time>
      </trkpt>
      <trkpt lat="48.6731" lon="7.09695">
        <ele>284.1</ele>
        <time>2023-12-08T13:52:53Z</time>
      </trkpt>
      <trkpt lat="48.67322" lon="7.09672">
        <ele>284</ele>
        <time>2023-12-08T13:53:00Z</time>
      </trkpt>
      <trkpt lat="48.67334" lon="7.09649">
        <ele>283.8</ele>
        <time>2023-12-08T13:53:07Z</time>
      </trkpt>
      <trkpt lat="48.67347" lon="7.09625">
        <ele>283.6</ele>
        <time>2023-12-08T13:53:14Z</time>
      </trkpt>
      <trkpt lat="48.67359" lon="7.09601">
        <ele>283.5</ele>
        <time>2023-12-08T13:53:21Z</time>
      </trkpt>
      <trkpt lat="48.6737" lon="7.09574">
        <ele>283.4</ele>
        <time>2023-12-08T13:53:28Z</time>
      </trkpt>
      <trkpt lat="48.67378" lon="7.09546">
        <ele>283.3</ele>
        <time>2023-12-08T13:53:35Z</time>
      </trkpt>
      <trkpt lat="48.67384" lon="7.0952">
        <ele>283.2</ele>
        <time>2023-12-08T13:53:41Z</time>
      </trkpt>
      <trkpt lat="48.67389" lon="7.0949">
        <ele>283.1</ele>
        <time>2023-12-08T13:53:48Z</time>
      </trkpt>
      <trkpt lat="48.67391" lon="7.09462">
        <ele>283</ele>
        <time>2023-12-08T13:53:55Z</time>
      </trkpt>
      <trkpt lat="48.6739" lon="7.09433">
        <ele>282.9</ele>
        <time>2023-12-08T13:54:02Z</time>
      </trkpt>
      <trkpt lat="48.67386" lon="7.09403">
        <ele>282.9</ele>
        <time>2023-12-08T13:54:09Z</time>
      </trkpt>
      <trkpt lat="48.67382" lon="7.09374">
        <ele>282.9</ele>
        <time>2023-12-08T13:54:16Z</time>
      </trkpt>
      <trkpt lat="48.67374" lon="7.09348">
        <ele>282.8</ele>
        <time>2023-12-08T13:54:23Z</time>
      </trkpt>
      <trkpt lat="48.67365" lon="7.09322">
        <ele>282.7</ele>
        <time>2023-12-08T13:54:30Z</time>
      </trkpt>
      <trkpt lat="48.67357" lon="7.09296">
        <ele>282.6</ele>
        <time>2023-12-08T13:54:37Z</time>
      </trkpt>
      <trkpt lat="48.67347" lon="7.09271">
        <ele>282.5</ele>
        <time>2023-12-08T13:54:44Z</time>
      </trkpt>
      <trkpt lat="48.67337" lon="7.09247">
        <ele>282.6</ele>
        <time>2023-12-08T13:54:51Z</time>
      </trkpt>
      <trkpt lat="48.67326" lon="7.09224">
        <ele>282.7</ele>
        <time>2023-12-08T13:54:58Z</time>
      </trkpt>
      <trkpt lat="48.67317" lon="7.09199">
        <ele>282.6</ele>
        <time>2023-12-08T13:55:05Z</time>
      </trkpt>
      <trkpt lat="48.67305" lon="7.09176">
        <ele>282.4</ele>
        <time>2023-12-08T13:55:12Z</time>
      </trkpt>
      <trkpt lat="48.67294" lon="7.09153">
        <ele>282.3</ele>
        <time>2023-12-08T13:55:19Z</time>
      </trkpt>
      <trkpt lat="48.6728" lon="7.09132">
        <ele>282.2</ele>
        <time>2023-12-08T13:55:26Z</time>
      </trkpt>
      <trkpt lat="48.67267" lon="7.0911">
        <ele>282.2</ele>
        <time>2023-12-08T13:55:33Z</time>
      </trkpt>
      <trkpt lat="48.67253" lon="7.0909">
        <ele>282.2</ele>
        <time>2023-12-08T13:55:40Z</time>
      </trkpt>
      <trkpt lat="48.67239" lon="7.09069">
        <ele>282</ele>
        <time>2023-12-08T13:55:47Z</time>
      </trkpt>
      <trkpt lat="48.67225" lon="7.09048">
        <ele>281.7</ele>
        <time>2023-12-08T13:55:54Z</time>
      </trkpt>
      <trkpt lat="48.67211" lon="7.09025">
        <ele>281.5</ele>
        <time>2023-12-08T13:56:01Z</time>
      </trkpt>
      <trkpt lat="48.67199" lon="7.09003">
        <ele>281.3</ele>
        <time>2023-12-08T13:56:08Z</time>
      </trkpt>
      <trkpt lat="48.67188" lon="7.0898">
        <ele>281.1</ele>
        <time>2023-12-08T13:56:15Z</time>
      </trkpt>
      <trkpt lat="48.67177" lon="7.08957">
        <ele>280.9</ele>
        <time>2023-12-08T13:56:22Z</time>
      </trkpt>
      <trkpt lat="48.67167" lon="7.08932">
        <ele>280.6</ele>
        <time>2023-12-08T13:56:29Z</time>
      </trkpt>
      <trkpt lat="48.67157" lon="7.08906">
        <ele>280.4</ele>
        <time>2023-12-08T13:56:36Z</time>
      </trkpt>
      <trkpt lat="48.67147" lon="7.08881">
        <ele>280.2</ele>
        <time>2023-12-08T13:56:43Z</time>
      </trkpt>
      <trkpt lat="48.67136" lon="7.08859">
        <ele>280</ele>
        <time>2023-12-08T13:56:50Z</time>
      </trkpt>
      <trkpt lat="48.67126" lon="7.08836">
        <ele>279.9</ele>
        <time>2023-12-08T13:56:57Z</time>
      </trkpt>
      <trkpt lat="48.67116" lon="7.08813">
        <ele>279.8</ele>
        <time>2023-12-08T13:57:04Z</time>
      </trkpt>
      <trkpt lat="48.67105" lon="7.08789">
        <ele>279.6</ele>
        <time>2023-12-08T13:57:11Z</time>
      </trkpt>
      <trkpt lat="48.67096" lon="7.08763">
        <ele>279.4</ele>
        <time>2023-12-08T13:57:18Z</time>
      </trkpt>
      <trkpt lat="48.67087" lon="7.08737">
        <ele>279.2</ele>
        <time>2023-12-08T13:57:25Z</time>
      </trkpt>
      <trkpt lat="48.6708" lon="7.08709">
        <ele>279.1</ele>
        <time>2023-12-08T13:57:32Z</time>
      </trkpt>
      <trkpt lat="48.67074" lon="7.08681">
        <ele>279.2</ele>
        <time>2023-12-08T13:57:39Z</time>
      </trkpt>
      <trkpt lat="48.67068" lon="7.08652">
        <ele>279.5</ele>
        <time>2023-12-08T13:57:46Z</time>
      </trkpt>
      <trkpt lat="48.67064" lon="7.08625">
        <ele>279.9</ele>
        <time>2023-12-08T13:57:53Z</time>
      </trkpt>
      <trkpt lat="48.67068" lon="7.08597">
        <ele>279.5</ele>
        <time>2023-12-08T13:58:00Z</time>
      </trkpt>
      <trkpt lat="48.67069" lon="7.08568">
        <ele>279</ele>
        <time>2023-12-08T13:58:07Z</time>
      </trkpt>
      <trkpt lat="48.67075" lon="7.08538">
        <ele>278.7</ele>
        <time>2023-12-08T13:58:14Z</time>
      </trkpt>
      <trkpt lat="48.67084" lon="7.08512">
        <ele>278.7</ele>
        <time>2023-12-08T13:58:21Z</time>
      </trkpt>
      <trkpt lat="48.67094" lon="7.08487">
        <ele>278.7</ele>
        <time>2023-12-08T13:58:28Z</time>
      </trkpt>
      <trkpt lat="48.67105" lon="7.08462">
        <ele>278.7</ele>
        <time>2023-12-08T13:58:35Z</time>
      </trkpt>
      <trkpt lat="48.67117" lon="7.08439">
        <ele>278.8</ele>
        <time>2023-12-08T13:58:42Z</time>
      </trkpt>
      <trkpt lat="48.6713" lon="7.08418">
        <ele>278.9</ele>
        <time>2023-12-08T13:58:49Z</time>
      </trkpt>
      <trkpt lat="48.67143" lon="7.08397">
        <ele>279</ele>
        <time>2023-12-08T13:58:56Z</time>
      </trkpt>
      <trkpt lat="48.67156" lon="7.08375">
        <ele>279.1</ele>
        <time>2023-12-08T13:59:03Z</time>
      </trkpt>
      <trkpt lat="48.67171" lon="7.08355">
        <ele>279.3</ele>
        <time>2023-12-08T13:59:10Z</time>
      </trkpt>
      <trkpt lat="48.67186" lon="7.08337">
        <ele>279.2</ele>
        <time>2023-12-08T13:59:17Z</time>
      </trkpt>
      <trkpt lat="48.67203" lon="7.08322">
        <ele>279</ele>
        <time>2023-12-08T13:59:24Z</time>
      </trkpt>
      <trkpt lat="48.67222" lon="7.0831">
        <ele>278.9</ele>
        <time>2023-12-08T13:59:31Z</time>
      </trkpt>
      <trkpt lat="48.6724" lon="7.08297">
        <ele>278.9</ele>
        <time>2023-12-08T13:59:38Z</time>
      </trkpt>
      <trkpt lat="48.67258" lon="7.08287">
        <ele>278.9</ele>
        <time>2023-12-08T13:59:45Z</time>
      </trkpt>
      <trkpt lat="48.67276" lon="7.08274">
        <ele>279</ele>
        <time>2023-12-08T13:59:52Z</time>
      </trkpt>
      <trkpt lat="48.67293" lon="7.08258">
        <ele>279</ele>
        <time>2023-12-08T13:59:59Z</time>
      </trkpt>
      <trkpt lat="48.67309" lon="7.08239">
        <ele>278.9</ele>
        <time>2023-12-08T14:00:06Z</time>
      </trkpt>
      <trkpt lat="48.67326" lon="7.08221">
        <ele>279</ele>
        <time>2023-12-08T14:00:13Z</time>
      </trkpt>
      <trkpt lat="48.67342" lon="7.08203">
        <ele>279</ele>
        <time>2023-12-08T14:00:20Z</time>
      </trkpt>
      <trkpt lat="48.67358" lon="7.08185">
        <ele>279.1</ele>
        <time>2023-12-08T14:00:27Z</time>
      </trkpt>
      <trkpt lat="48.67373" lon="7.08169">
        <ele>279.2</ele>
        <time>2023-12-08T14:00:33Z</time>
      </trkpt>
      <trkpt lat="48.67388" lon="7.08153">
        <ele>279.2</ele>
        <time>2023-12-08T14:00:39Z</time>
      </trkpt>
      <trkpt lat="48.67402" lon="7.08135">
        <ele>279.2</ele>
        <time>2023-12-08T14:00:45Z</time>
      </trkpt>
      <trkpt lat="48.67417" lon="7.08117">
        <ele>279.2</ele>
        <time>2023-12-08T14:00:51Z</time>
      </trkpt>
      <trkpt lat="48.6743" lon="7.08094">
        <ele>279.3</ele>
        <time>2023-12-08T14:00:58Z</time>
      </trkpt>
      <trkpt lat="48.6744" lon="7.0807">
        <ele>279.3</ele>
        <time>2023-12-08T14:01:04Z</time>
      </trkpt>
      <trkpt lat="48.67449" lon="7.08044">
        <ele>279.3</ele>
        <time>2023-12-08T14:01:10Z</time>
      </trkpt>
      <trkpt lat="48.67442" lon="7.08022">
        <ele>279.2</ele>
        <time>2023-12-08T14:01:16Z</time>
      </trkpt>
      <trkpt lat="48.67435" lon="7.08011">
        <ele>279.2</ele>
        <time>2023-12-08T14:01:20Z</time>
      </trkpt>
      <trkpt lat="48.67436" lon="7.08006">
        <ele>279.2</ele>
        <time>2023-12-08T14:01:22Z</time>
      </trkpt>
      <trkpt lat="48.67436" lon="7.08004">
        <ele>279.2</ele>
        <time>2023-12-08T14:01:23Z</time>
      </trkpt>
      <trkpt lat="48.67443" lon="7.07994">
        <ele>279.1</ele>
        <time>2023-12-08T14:01:28Z</time>
      </trkpt>
    </trkseg>
  </trk>
</gpx>